Yvonne K. — PBLX — position and weather

sailwx.info

Track history (hours):
 
Tides and Currents Weather Stations Pressure Air Temp Water Temp Dewpoint Dewpoint Depression Visibility Wind Speed Wind Dir Waves Ship Positions

Yvonne K.

Last reported at 2016-May-01 04:33 UTC. Time now 2016-May-01 06:07 UTC.
Position N 55°23' E 014°40'.

Length 90 m; draft 3.5 m.

Type: Cargo ship. MMSI: 244948000.

Date/timePositionNaut miles runAvg speedWind from/ knotsBaromVisibWave heightAir tempDewpointWater temp
2016-May-01 04:33N 55°23' E 014°40'10 9.8
2016-May-01 03:33N 55°16' E 014°29'10 9.9
2016-May-01 02:33N 55°08' E 014°19'10 9.7
2016-May-01 01:33N 55°00' E 014°08'9 9.4
2016-May-01 00:33N 54°57' E 013°53'10 9.7
2016-Apr-30 23:33N 54°55' E 013°36'10 9.9
2016-Apr-30 22:32N 54°52' E 013°20'28 9.4
2016-Apr-30 19:33N 54°41' E 012°35'10 9.4
2016-Apr-30 18:30N 54°36' E 012°21'9 9.1
2016-Apr-30 17:33N 54°28' E 012°15'8 8.4
2016-Apr-30 16:33N 54°24' E 012°02'9 9.2
2016-Apr-30 15:33N 54°24' E 011°46'9 9.1
2016-Apr-30 14:33N 54°28' E 011°32'9 9.3
2016-Apr-30 13:33N 54°33' E 011°18'9 9.0
2016-Apr-30 12:33N 54°35' E 011°03'1010.3
2016-Apr-30 11:33N 54°34' E 010°45'10 9.9
2016-Apr-30 10:33N 54°32' E 010°28'10 9.8
2016-Apr-30 09:33N 54°26' E 010°14'5 5.4
2016-Apr-30 08:33N 54°22' E 010°09'5 4.9
2016-Apr-30 07:33N 54°21' E 010°00'8 7.5
2016-Apr-30 06:30N 54°21' E 009°47'25 7.6
2016-Apr-30 03:11N 54°03' E 009°18'3 4.0
2016-Apr-30 02:33N 54°00' E 009°18'6 6.4
2016-Apr-30 01:34N 53°55' E 009°11'2 2.0
2016-Apr-30 00:33N 53°54' E 009°09'3 2.6
2016-Apr-29 23:33N 53°53' E 009°04'7 6.7
2016-Apr-29 22:33N 53°50' E 008°54'6 5.8
2016-Apr-29 21:33N 53°52' E 008°44'6 5.9
2016-Apr-29 20:33N 53°57' E 008°38'7 7.1
2016-Apr-29 19:33N 53°59' E 008°27'9 8.6
2016-Apr-29 18:33N 53°59' E 008°12'9 9.1
2016-Apr-29 17:33N 53°56' E 007°58'7 7.2
2016-Apr-29 16:33N 53°50' E 008°05'10 9.9
2016-Apr-29 15:33N 53°43' E 008°17'9 8.8
2016-Apr-29 14:33N 53°37' E 008°29'7 6.9
2016-Apr-29 13:33N 53°31' E 008°32'8 7.7
2016-Apr-29 12:33N 53°23' E 008°30'3 2.7
2016-Apr-29 11:31N 53°20' E 008°30'0 0.0
2016-Apr-29 10:19N 53°20' E 008°30'0 0.0
2016-Apr-29 09:25N 53°20' E 008°30'0 0.0
2016-Apr-29 08:28N 53°20' E 008°30'0 0.0
2016-Apr-29 07:31N 53°20' E 008°30'0 0.0
2016-Apr-29 06:31N 53°20' E 008°30'0 0.0
2016-Apr-29 05:31N 53°20' E 008°30'0 0.0
2016-Apr-29 04:31N 53°20' E 008°30'0 0.0
2016-Apr-29 03:31N 53°20' E 008°30'0 0.0
2016-Apr-29 02:31N 53°20' E 008°30'0 0.0
2016-Apr-29 01:31N 53°20' E 008°30'0 0.0
2016-Apr-29 00:31N 53°20' E 008°30'0 0.0
2016-Apr-28 23:31N 53°20' E 008°30'0 0.0
2016-Apr-28 22:31N 53°20' E 008°30'0 0.0
2016-Apr-28 21:31N 53°20' E 008°30'0 0.0
2016-Apr-28 20:25N 53°20' E 008°30'2 2.0
2016-Apr-28 19:33N 53°22' E 008°30'6 6.2
2016-Apr-28 18:33N 53°28' E 008°30'6 5.8
2016-Apr-28 17:33N 53°34' E 008°33'8 8.0
2016-Apr-28 16:33N 53°39' E 008°24'9 8.6
2016-Apr-28 15:33N 53°45' E 008°12'9 9.1
2016-Apr-28 14:33N 53°51' E 008°01'9 9.0
2016-Apr-28 13:33N 53°53' E 007°46'10 9.7
2016-Apr-28 12:33N 53°53' E 007°29'1010.0
2016-Apr-28 11:33N 53°51' E 007°13'10 9.9
2016-Apr-28 10:33N 53°49' E 006°57'9 9.4
2016-Apr-28 09:33N 53°47' E 006°41'9 8.7
2016-Apr-28 08:33N 53°45' E 006°27'8 8.1
2016-Apr-28 07:33N 53°42' E 006°13'8 7.5
2016-Apr-28 06:33N 53°40' E 006°01'7 7.3
2016-Apr-28 05:33N 53°38' E 005°50'7 7.1
2016-Apr-28 04:33N 53°35' E 005°38'7 6.9
2016-Apr-28 03:33N 53°33' E 005°27'7 6.9
2016-Apr-28 02:33N 53°31' E 005°16'7 7.3
2016-Apr-28 01:33N 53°29' E 005°05'38 7.5
2016-Apr-27 20:27N 53°00' E 004°22'116 6.9
2016-Apr-27 03:33N 51°32' E 002°19'8 7.9
2016-Apr-27 02:31N 51°25' E 002°12'7 7.2
2016-Apr-27 01:33N 51°19' E 002°07'7 7.1
2016-Apr-27 00:34N 51°13' E 002°00'6 6.4
2016-Apr-26 23:33N 51°09' E 001°52'6 5.8
2016-Apr-26 22:33N 51°05' E 001°45'6 5.6
2016-Apr-26 21:34N 51°01' E 001°39'6 5.7
2016-Apr-26 20:33N 50°57' E 001°33'6 6.1
2016-Apr-26 19:33N 50°52' E 001°28'76 8.3
2016-Apr-26 10:25N 50°15' W 000°17'  
Track history (hours):
 
Tides and Currents Weather Stations Pressure Air Temp Water Temp Dewpoint Dewpoint Depression Visibility Wind Speed Wind Dir Waves Ship Positions

Yvonne K.

Last reported at 2016-May-01 04:33 UTC. Time now 2016-May-01 06:07 UTC.
Position N 55°23' E 014°40'.

Length 90 m; draft 3.5 m.

Type: Cargo ship. MMSI: 244948000.

Date/timePositionNaut miles runAvg speedWind from/ knotsBaromVisibWave heightAir tempDewpointWater temp
2016-May-01 04:33N 55°23' E 014°40'10 9.8
2016-May-01 03:33N 55°16' E 014°29'10 9.9
2016-May-01 02:33N 55°08' E 014°19'10 9.7
2016-May-01 01:33N 55°00' E 014°08'9 9.4
2016-May-01 00:33N 54°57' E 013°53'10 9.7
2016-Apr-30 23:33N 54°55' E 013°36'10 9.9
2016-Apr-30 22:32N 54°52' E 013°20'28 9.4
2016-Apr-30 19:33N 54°41' E 012°35'10 9.4
2016-Apr-30 18:30N 54°36' E 012°21'9 9.1
2016-Apr-30 17:33N 54°28' E 012°15'8 8.4
2016-Apr-30 16:33N 54°24' E 012°02'9 9.2
2016-Apr-30 15:33N 54°24' E 011°46'9 9.1
2016-Apr-30 14:33N 54°28' E 011°32'9 9.3
2016-Apr-30 13:33N 54°33' E 011°18'9 9.0
2016-Apr-30 12:33N 54°35' E 011°03'1010.3
2016-Apr-30 11:33N 54°34' E 010°45'10 9.9
2016-Apr-30 10:33N 54°32' E 010°28'10 9.8
2016-Apr-30 09:33N 54°26' E 010°14'5 5.4
2016-Apr-30 08:33N 54°22' E 010°09'5 4.9
2016-Apr-30 07:33N 54°21' E 010°00'8 7.5
2016-Apr-30 06:30N 54°21' E 009°47'25 7.6
2016-Apr-30 03:11N 54°03' E 009°18'3 4.0
2016-Apr-30 02:33N 54°00' E 009°18'6 6.4
2016-Apr-30 01:34N 53°55' E 009°11'2 2.0
2016-Apr-30 00:33N 53°54' E 009°09'3 2.6
2016-Apr-29 23:33N 53°53' E 009°04'7 6.7
2016-Apr-29 22:33N 53°50' E 008°54'6 5.8
2016-Apr-29 21:33N 53°52' E 008°44'6 5.9
2016-Apr-29 20:33N 53°57' E 008°38'7 7.1
2016-Apr-29 19:33N 53°59' E 008°27'9 8.6
2016-Apr-29 18:33N 53°59' E 008°12'9 9.1
2016-Apr-29 17:33N 53°56' E 007°58'7 7.2
2016-Apr-29 16:33N 53°50' E 008°05'10 9.9
2016-Apr-29 15:33N 53°43' E 008°17'9 8.8
2016-Apr-29 14:33N 53°37' E 008°29'7 6.9
2016-Apr-29 13:33N 53°31' E 008°32'8 7.7
2016-Apr-29 12:33N 53°23' E 008°30'3 2.7
2016-Apr-29 11:31N 53°20' E 008°30'0 0.0
2016-Apr-29 10:19N 53°20' E 008°30'0 0.0
2016-Apr-29 09:25N 53°20' E 008°30'0 0.0
2016-Apr-29 08:28N 53°20' E 008°30'0 0.0
2016-Apr-29 07:31N 53°20' E 008°30'0 0.0
2016-Apr-29 06:31N 53°20' E 008°30'0 0.0
2016-Apr-29 05:31N 53°20' E 008°30'0 0.0
2016-Apr-29 04:31N 53°20' E 008°30'0 0.0
2016-Apr-29 03:31N 53°20' E 008°30'0 0.0
2016-Apr-29 02:31N 53°20' E 008°30'0 0.0
2016-Apr-29 01:31N 53°20' E 008°30'0 0.0
2016-Apr-29 00:31N 53°20' E 008°30'0 0.0
2016-Apr-28 23:31N 53°20' E 008°30'0 0.0
2016-Apr-28 22:31N 53°20' E 008°30'0 0.0
2016-Apr-28 21:31N 53°20' E 008°30'0 0.0
2016-Apr-28 20:25N 53°20' E 008°30'2 2.0
2016-Apr-28 19:33N 53°22' E 008°30'6 6.2
2016-Apr-28 18:33N 53°28' E 008°30'6 5.8
2016-Apr-28 17:33N 53°34' E 008°33'8 8.0
2016-Apr-28 16:33N 53°39' E 008°24'9 8.6
2016-Apr-28 15:33N 53°45' E 008°12'9 9.1
2016-Apr-28 14:33N 53°51' E 008°01'9 9.0
2016-Apr-28 13:33N 53°53' E 007°46'10 9.7
2016-Apr-28 12:33N 53°53' E 007°29'1010.0
2016-Apr-28 11:33N 53°51' E 007°13'10 9.9
2016-Apr-28 10:33N 53°49' E 006°57'9 9.4
2016-Apr-28 09:33N 53°47' E 006°41'9 8.7
2016-Apr-28 08:33N 53°45' E 006°27'8 8.1
2016-Apr-28 07:33N 53°42' E 006°13'8 7.5
2016-Apr-28 06:33N 53°40' E 006°01'7 7.3
2016-Apr-28 05:33N 53°38' E 005°50'7 7.1
2016-Apr-28 04:33N 53°35' E 005°38'7 6.9
2016-Apr-28 03:33N 53°33' E 005°27'7 6.9
2016-Apr-28 02:33N 53°31' E 005°16'7 7.3
2016-Apr-28 01:33N 53°29' E 005°05'38 7.5
2016-Apr-27 20:27N 53°00' E 004°22'116 6.9
2016-Apr-27 03:33N 51°32' E 002°19'8 7.9
2016-Apr-27 02:31N 51°25' E 002°12'7 7.2
2016-Apr-27 01:33N 51°19' E 002°07'7 7.1
2016-Apr-27 00:34N 51°13' E 002°00'6 6.4
2016-Apr-26 23:33N 51°09' E 001°52'6 5.8
2016-Apr-26 22:33N 51°05' E 001°45'6 5.6
2016-Apr-26 21:34N 51°01' E 001°39'6 5.7
2016-Apr-26 20:33N 50°57' E 001°33'6 6.1
2016-Apr-26 19:33N 50°52' E 001°28'76 8.3
2016-Apr-26 10:25N 50°15' W 000°17'  

Dump ship's entire track history